Time;durP1;ratioP1;P1;durP2;ratioP2;P2;SDS_P1;SDS_P2;PMS_P1;PMS_P2;Temp;Humidity;BMP_temperature;BMP_pressure;BME280_temperature;BME280_humidity;BME280_pressure;Samples;Min_cycle;Max_cycle;Signal;HPM_P1;HPM_P2
2023/01/11 00:02:19;;;;;;;9.65;1.63;;;;;;;5.89;100.00;98970.72;5010664;28;20087;-81
2023/01/11 00:04:47;;;;;;;10.68;1.83;;;;;;;5.81;100.00;98974.91;5011914;28;20021;-81
2023/01/11 00:07:16;;;;;;;19.77;2.15;;;;;;;5.78;100.00;98967.34;4993884;28;20033;-80
2023/01/11 00:09:46;;;;;;;16.67;2.47;;;;;;;5.70;100.00;98978.59;4995575;28;20033;-80
2023/01/11 00:12:15;;;;;;;13.27;3.00;;;;;;;5.67;100.00;98980.69;5011041;28;20083;-81
2023/01/11 00:14:43;;;;;;;15.07;2.70;;;;;;;5.63;100.00;98988.03;5021439;28;20021;-81
2023/01/11 00:17:13;;;;;;;8.63;1.90;;;;;;;5.61;100.00;98981.25;5008975;28;20044;-81
2023/01/11 00:19:41;;;;;;;9.25;2.05;;;;;;;5.60;100.00;98985.69;5028546;28;20026;-81
2023/01/11 00:22:12;;;;;;;21.17;1.98;;;;;;;5.57;100.00;98984.19;4974198;28;20061;-81
2023/01/11 00:24:42;;;;;;;16.67;2.00;;;;;;;5.57;100.00;98994.66;5022454;28;20029;-81
2023/01/11 00:27:11;;;;;;;19.38;1.80;;;;;;;5.57;100.00;98989.44;5010439;28;20021;-81
2023/01/11 00:29:39;;;;;;;10.70;2.15;;;;;;;5.54;100.00;98989.72;5010867;28;20040;-80
2023/01/11 00:32:09;;;;;;;13.85;1.98;;;;;;;5.53;100.00;98968.91;5022858;28;20044;-81
2023/01/11 00:34:38;;;;;;;8.40;1.40;;;;;;;5.53;100.00;98971.53;4987151;28;20029;-81
2023/01/11 00:37:06;;;;;;;8.02;1.42;;;;;;;5.52;100.00;98986.44;5004956;28;20021;-81
2023/01/11 00:39:35;;;;;;;13.00;2.42;;;;;;;5.48;100.00;98985.06;4989407;28;20822;-81
2023/01/11 00:50:31;;;;;;;14.25;1.58;;;;;;;5.52;100.00;99006.56;4984864;28;20041;-80
2023/01/11 00:53:02;;;;;;;8.38;1.45;;;;;;;5.50;100.00;99004.09;5013274;28;20072;-81
2023/01/11 00:55:33;;;;;;;9.60;2.20;;;;;;;5.48;100.00;99007.84;4987175;28;20042;-80
2023/01/11 00:58:03;;;;;;;17.67;2.60;;;;;;;5.46;100.00;99010.63;4990979;28;20378;-80
2023/01/11 01:00:32;;;;;;;12.80;1.80;;;;;;;5.43;100.00;99016.97;4982357;28;20061;-80
2023/01/11 01:03:00;;;;;;;9.68;1.33;;;;;;;5.32;100.00;99015.38;5009533;28;20539;-80
2023/01/11 01:05:28;;;;;;;7.97;1.55;;;;;;;5.32;100.00;99023.22;5003613;28;20121;-80
2023/01/11 01:07:59;;;;;;;14.05;1.67;;;;;;;5.29;100.00;99023.53;4992880;28;20032;-80
2023/01/11 01:10:28;;;;;;;9.50;1.55;;;;;;;5.27;100.00;99009.72;5004301;28;20065;-81
2023/01/11 01:15:47;;;;;;;13.15;2.53;;;;;;;5.17;100.00;99019.44;5007674;28;20550;-87
2023/01/11 01:18:19;;;;;;;14.52;1.63;;;;;;;5.17;100.00;99011.59;5020167;28;20157;-87
2023/01/11 01:20:50;;;;;;;8.75;1.63;;;;;;;5.17;100.00;99022.91;5008891;28;20033;-87
2023/01/11 01:23:20;;;;;;;10.70;2.10;;;;;;;5.16;100.00;99031.72;4999746;28;20116;-88
2023/01/11 01:25:50;;;;;;;13.20;2.72;;;;;;;5.15;100.00;99021.38;5026163;28;20037;-87
2023/01/11 01:28:20;;;;;;;14.43;3.03;;;;;;;5.12;100.00;99034.75;5007622;28;20025;-87
2023/01/11 01:30:50;;;;;;;7.45;1.88;;;;;;;5.10;100.00;99037.53;5003493;28;20459;-86
2023/01/11 01:33:18;;;;;;;16.83;1.80;;;;;;;5.05;100.00;99040.56;5020816;28;20034;-87
2023/01/11 01:35:53;;;;;;;11.90;1.50;;;;;;;5.05;100.00;99037.13;5024403;28;20029;-87
2023/01/11 01:38:24;;;;;;;13.00;1.63;;;;;;;5.02;100.00;99032.16;5031304;28;20385;-87
2023/01/11 01:40:53;;;;;;;12.85;1.98;;;;;;;5.00;100.00;99032.31;5001968;28;20034;-87
2023/01/11 01:43:20;;;;;;;15.90;1.67;;;;;;;4.98;100.00;99029.03;4989836;28;20068;-87
2023/01/11 01:45:51;;;;;;;14.93;1.88;;;;;;;5.00;100.00;99029.69;5024373;28;20065;-87
2023/01/11 01:48:24;;;;;;;13.35;2.33;;;;;;;5.00;100.00;99042.78;4999427;28;20030;-87
2023/01/11 01:50:58;;;;;;;10.95;1.80;;;;;;;5.01;100.00;99041.00;5011501;28;20072;-87
2023/01/11 01:53:36;;;;;;;12.75;1.83;;;;;;;5.01;100.00;99041.84;4994590;28;20436;-87
2023/01/11 01:56:19;;;;;;;12.48;1.98;;;;;;;5.02;100.00;99035.63;5015111;28;20040;-87
2023/01/11 01:59:00;;;;;;;11.50;1.40;;;;;;;5.05;100.00;99039.75;5019898;28;20033;-87
2023/01/11 02:01:46;;;;;;;22.55;1.85;;;;;;;5.03;100.00;99045.13;5019540;28;20033;-87
2023/01/11 02:04:36;;;;;;;10.73;1.75;;;;;;;5.05;100.00;99040.56;5004858;28;20436;-88
2023/01/11 02:07:17;;;;;;;9.25;1.27;;;;;;;5.05;100.00;99040.56;5023681;28;20494;-87
2023/01/11 02:09:58;;;;;;;17.30;1.83;;;;;;;5.03;100.00;99041.69;5009648;28;20041;-88
2023/01/11 02:12:33;;;;;;;6.45;1.30;;;;;;;4.98;100.00;99042.13;5019409;28;20056;-88
2023/01/11 02:15:05;;;;;;;12.63;1.92;;;;;;;4.97;100.00;99054.38;4994008;28;20069;-88
2023/01/11 02:17:38;;;;;;;12.40;1.65;;;;;;;4.94;100.00;99041.56;5027481;28;20033;-87
2023/01/11 02:20:42;;;;;;;11.98;2.33;;;;;;;4.93;100.00;99031.25;5011385;28;20039;-88
2023/01/11 02:23:39;;;;;;;10.60;1.65;;;;;;;4.95;100.00;99045.03;4984778;28;20402;-88
2023/01/11 02:26:39;;;;;;;10.18;1.10;;;;;;;4.98;100.00;99044.75;5005731;28;20030;-88
2023/01/11 02:29:19;;;;;;;11.27;1.17;;;;;;;5.02;100.00;99030.38;5025597;28;20056;-88
2023/01/11 02:32:02;;;;;;;26.85;5.93;;;;;;;5.06;100.00;99030.94;5017731;28;20065;-88
2023/01/11 02:34:49;;;;;;;11.27;1.30;;;;;;;5.05;100.00;99052.84;5014188;28;20037;-86
2023/01/11 02:37:23;;;;;;;14.88;3.33;;;;;;;5.01;100.00;99047.06;5016776;28;20073;-88
2023/01/11 02:40:05;;;;;;;20.23;1.98;;;;;;;5.03;100.00;99055.59;5019915;28;20045;-87
2023/01/11 02:46:02;;;;;;;11.10;2.17;;;;;;;4.99;100.00;99051.63;5027954;28;20545;-87
2023/01/11 02:48:40;;;;;;;13.43;1.92;;;;;;;5.00;100.00;99062.94;5013934;28;20030;-88
2023/01/11 02:51:17;;;;;;;12.63;1.83;;;;;;;5.03;100.00;99068.69;5013193;28;20041;-87
2023/01/11 02:54:04;;;;;;;12.90;1.67;;;;;;;5.05;100.00;99068.53;5029717;28;20444;-87
2023/01/11 02:56:37;;;;;;;17.95;2.08;;;;;;;5.04;100.00;99064.28;5004854;28;20091;-83
2023/01/11 02:59:11;;;;;;;14.30;1.77;;;;;;;5.06;100.00;99080.69;5038866;28;20100;-82
2023/01/11 03:01:51;;;;;;;13.65;1.65;;;;;;;5.09;100.00;99083.03;5016434;28;20036;-88
2023/01/11 03:04:23;;;;;;;10.30;1.75;;;;;;;5.06;100.00;99078.91;5016099;28;20033;-87
2023/01/11 03:06:57;;;;;;;13.98;1.83;;;;;;;5.08;100.00;99079.56;4998813;28;20048;-87
2023/01/11 03:09:55;;;;;;;13.30;2.10;;;;;;;5.06;100.00;99086.75;5012736;28;20032;-87
2023/01/11 03:12:53;;;;;;;14.43;1.65;;;;;;;5.02;100.00;99069.66;5028439;28;20047;-87
2023/01/11 03:15:31;;;;;;;11.60;1.65;;;;;;;5.06;100.00;99075.47;5025504;28;20033;-88
2023/01/11 03:18:18;;;;;;;10.52;1.83;;;;;;;5.12;100.00;99084.53;5031472;28;20041;-87
2023/01/11 03:20:52;;;;;;;16.35;1.92;;;;;;;5.18;100.00;99078.72;5024747;28;20037;-87
2023/01/11 03:23:37;;;;;;;12.75;1.75;;;;;;;5.26;100.00;99080.63;5033903;28;20381;-88
2023/01/11 03:26:28;;;;;;;11.02;1.50;;;;;;;5.32;100.00;99075.63;5030989;28;20090;-87
2023/01/11 03:29:11;;;;;;;13.80;2.13;;;;;;;5.42;100.00;99069.53;5052979;28;20491;-88
2023/01/11 03:31:59;;;;;;;12.18;2.05;;;;;;;5.45;100.00;99080.53;5027717;28;20415;-82
2023/01/11 03:34:37;;;;;;;12.98;2.13;;;;;;;5.44;100.00;99070.22;5008563;28;20037;-83
2023/01/11 03:37:27;;;;;;;12.18;2.33;;;;;;;5.46;100.00;99058.59;5034552;28;20116;-88
2023/01/11 03:40:08;;;;;;;15.85;2.30;;;;;;;5.51;100.00;99079.13;5047034;28;20598;-87
2023/01/11 03:43:09;;;;;;;11.00;1.85;;;;;;;5.53;100.00;99082.44;5031272;28;20039;-87
2023/01/11 03:45:32;;;;;;;12.75;2.03;;;;;;;5.55;100.00;99082.28;5036013;28;20089;-88
2023/01/11 03:48:04;;;;;;;8.63;1.60;;;;;;;5.59;100.00;99094.13;5026546;28;20069;-88
2023/01/11 03:50:33;;;;;;;13.40;2.13;;;;;;;5.60;100.00;99087.94;5004105;28;20044;-87
2023/01/11 03:53:07;;;;;;;9.77;1.23;;;;;;;5.58;100.00;99082.00;5056312;28;20046;-88
2023/01/11 03:55:40;;;;;;;16.42;2.83;;;;;;;5.55;100.00;99095.41;5016436;28;20043;-87
2023/01/11 03:58:13;;;;;;;13.55;1.83;;;;;;;5.48;100.00;99089.09;5032630;28;20029;-87
2023/01/11 04:00:41;;;;;;;12.70;1.92;;;;;;;5.43;100.00;99079.06;5030137;28;20033;-87
2023/01/11 04:03:13;;;;;;;12.05;2.20;;;;;;;5.37;100.00;99092.72;5027179;28;20029;-87
2023/01/11 04:05:43;;;;;;;21.75;2.45;;;;;;;5.36;100.00;99083.19;5024832;28;20057;-87
2023/01/11 04:08:12;;;;;;;16.00;2.70;;;;;;;5.30;100.00;99082.00;5033439;28;20025;-87
2023/01/11 04:10:40;;;;;;;12.88;1.45;;;;;;;5.30;100.00;99082.00;5029104;28;20028;-87
2023/01/11 04:13:11;;;;;;;13.93;2.17;;;;;;;5.24;100.00;99075.50;5016109;28;20049;-87
2023/01/11 04:15:41;;;;;;;12.30;1.77;;;;;;;5.24;100.00;99077.34;5021101;28;20088;-87
2023/01/11 04:18:12;;;;;;;12.25;1.92;;;;;;;5.18;100.00;99076.09;5037712;28;20029;-87
2023/01/11 04:20:40;;;;;;;11.95;1.70;;;;;;;5.18;100.00;99082.16;5013962;28;20075;-87
2023/01/11 04:23:09;;;;;;;18.48;2.08;;;;;;;5.16;100.00;99078.03;5017964;28;20057;-87
2023/01/11 04:25:38;;;;;;;12.93;3.78;;;;;;;5.13;100.00;99063.44;5026932;28;20048;-87
2023/01/11 04:28:07;;;;;;;24.02;3.72;;;;;;;5.11;100.00;99068.00;5030848;28;20151;-87
2023/01/11 04:30:36;;;;;;;18.75;2.25;;;;;;;5.06;100.00;99065.81;5041802;28;20037;-87
2023/01/11 04:33:04;;;;;;;23.63;3.92;;;;;;;5.03;100.00;99068.69;5011778;28;20055;-87
2023/01/11 04:35:32;;;;;;;17.10;3.08;;;;;;;5.03;100.00;99068.69;5024377;28;20103;-85
2023/01/11 04:38:00;;;;;;;15.82;2.30;;;;;;;5.02;100.00;99063.59;5022889;28;20033;-87
2023/01/11 04:40:30;;;;;;;17.25;2.22;;;;;;;5.02;100.00;99045.25;5041250;28;20052;-86
2023/01/11 04:43:01;;;;;;;22.42;2.88;;;;;;;5.03;100.00;99054.78;5006346;28;20036;-87
2023/01/11 04:45:30;;;;;;;21.92;3.22;;;;;;;5.03;100.00;99045.13;5035437;28;20044;-87
2023/01/11 04:48:02;;;;;;;18.90;2.83;;;;;;;5.02;100.00;99048.72;5031076;28;20044;-86
2023/01/11 04:50:31;;;;;;;23.20;3.17;;;;;;;5.01;100.00;99052.31;5035611;28;20029;-87
2023/01/11 04:52:59;;;;;;;14.70;2.00;;;;;;;5.00;100.00;99050.63;5044504;28;20500;-87
2023/01/11 04:55:27;;;;;;;17.60;2.40;;;;;;;5.00;100.00;99050.63;5030874;28;20388;-87
2023/01/11 04:57:54;;;;;;;14.57;2.05;;;;;;;4.95;100.00;99052.88;5031182;28;20120;-87
2023/01/11 05:00:24;;;;;;;18.17;2.17;;;;;;;4.99;100.00;99059.47;5011205;28;20064;-87
2023/01/11 05:02:54;;;;;;;16.92;2.92;;;;;;;5.00;100.00;99058.50;5012680;28;20144;-87
2023/01/11 05:05:24;;;;;;;18.38;1.95;;;;;;;5.00;100.00;99055.88;5029767;28;20033;-87
2023/01/11 05:07:56;;;;;;;15.90;2.92;;;;;;;4.99;100.00;99056.84;5012459;28;20033;-81
2023/01/11 05:10:27;;;;;;;18.92;2.70;;;;;;;4.99;100.00;99056.03;5023052;28;20021;-81
2023/01/11 05:13:04;;;;;;;18.17;2.88;;;;;;;4.94;100.00;99059.06;5047386;28;20064;-87
2023/01/11 05:15:34;;;;;;;20.38;2.90;;;;;;;4.93;100.00;99081.00;5027742;28;20036;-86
2023/01/11 05:18:04;;;;;;;21.10;2.40;;;;;;;4.94;100.00;99077.41;5022419;28;20056;-87
2023/01/11 05:20:34;;;;;;;16.80;2.53;;;;;;;4.94;100.00;99080.03;5013106;28;20034;-87
2023/01/11 05:23:03;;;;;;;22.00;3.58;;;;;;;4.97;100.00;99070.09;4991824;28;20029;-86
2023/01/11 05:25:31;;;;;;;18.27;2.97;;;;;;;4.97;100.00;99067.47;5013064;28;20068;-87
2023/01/11 05:28:00;;;;;;;15.43;2.60;;;;;;;5.02;100.00;99069.66;5009522;28;20033;-86
2023/01/11 05:30:28;;;;;;;26.10;3.35;;;;;;;5.03;100.00;99073.13;5030018;28;20030;-87
2023/01/11 05:32:59;;;;;;;20.17;3.22;;;;;;;5.06;100.00;99072.84;5003244;28;20277;-87
2023/01/11 05:35:30;;;;;;;22.98;2.88;;;;;;;5.06;100.00;99076.28;4995492;28;20930;-87
2023/01/11 05:38:01;;;;;;;26.95;2.53;;;;;;;5.08;100.00;99097.91;5018908;28;20104;-86
2023/01/11 05:40:31;;;;;;;18.02;2.80;;;;;;;5.08;100.00;99100.53;5005971;28;20042;-87
2023/01/11 05:43:01;;;;;;;20.80;3.00;;;;;;;5.11;100.00;99104.66;5009142;28;20030;-88
2023/01/11 05:45:32;;;;;;;18.58;2.50;;;;;;;5.09;100.00;99064.69;5011368;28;20025;-88
2023/01/11 05:48:01;;;;;;;14.73;1.95;;;;;;;5.08;100.00;99050.75;5008052;28;20100;-83
2023/01/11 05:50:30;;;;;;;15.60;2.30;;;;;;;5.12;100.00;99051.31;5001887;28;20063;-88
2023/01/11 05:53:01;;;;;;;16.10;2.20;;;;;;;5.21;100.00;99062.69;5004584;28;20081;-86
2023/01/11 05:55:31;;;;;;;14.13;2.83;;;;;;;5.23;100.00;99055.53;5026900;28;20064;-88
2023/01/11 05:58:00;;;;;;;12.60;3.05;;;;;;;5.20;100.00;99053.22;5016510;28;20034;-87
2023/01/11 06:00:27;;;;;;;18.65;3.03;;;;;;;5.22;100.00;99048.66;5013089;28;20068;-88
2023/01/11 06:02:55;;;;;;;18.05;2.45;;;;;;;5.22;100.00;99052.09;5017947;28;20030;-88
2023/01/11 06:05:23;;;;;;;11.82;2.28;;;;;;;5.24;100.00;99051.13;5009641;28;20053;-87
2023/01/11 06:07:52;;;;;;;11.77;2.42;;;;;;;5.24;100.00;99043.28;5023907;28;20025;-87
2023/01/11 06:10:20;;;;;;;20.30;2.72;;;;;;;5.23;100.00;99042.44;5009236;28;20752;-87
2023/01/11 06:13:25;;;;;;;23.05;3.42;;;;;;;5.25;100.00;99056.22;5026921;28;20053;-87
2023/01/11 06:15:42;;;;;;;20.63;2.72;;;;;;;5.21;100.00;99042.59;5023586;28;20056;-86
2023/01/11 06:18:13;;;;;;;16.10;2.72;;;;;;;5.20;100.00;99042.72;5022485;28;20026;-87
2023/01/11 06:20:43;;;;;;;13.98;2.13;;;;;;;5.20;100.00;99040.09;4992902;28;20032;-87
2023/01/11 06:23:13;;;;;;;19.10;2.60;;;;;;;5.23;100.00;99026.72;4988311;28;20037;-86
2023/01/11 06:25:43;;;;;;;17.83;2.65;;;;;;;5.26;100.00;99030.84;5004418;28;20053;-87
2023/01/11 06:28:13;;;;;;;23.35;3.08;;;;;;;5.30;100.00;99040.88;5010312;28;20374;-87
2023/01/11 06:30:53;;;;;;;11.52;2.00;;;;;;;5.33;100.00;99047.63;5000041;28;20156;-86
2023/01/11 06:33:23;;;;;;;14.48;2.03;;;;;;;5.33;100.00;99045.03;4998175;28;20088;-86
2023/01/11 06:35:55;;;;;;;14.60;2.80;;;;;;;5.34;100.00;99031.78;5029201;28;20055;-87
2023/01/11 06:38:25;;;;;;;12.38;2.55;;;;;;;5.34;100.00;99037.00;4987647;28;20034;-87
2023/01/11 06:40:56;;;;;;;10.40;2.03;;;;;;;5.32;100.00;99023.22;5002612;28;20030;-86
2023/01/11 06:43:25;;;;;;;15.48;2.08;;;;;;;5.35;100.00;99032.63;4989940;28;20046;-87
2023/01/11 06:45:56;;;;;;;12.98;1.92;;;;;;;5.39;100.00;99038.38;4997514;28;20041;-87
2023/01/11 06:48:27;;;;;;;11.95;2.22;;;;;;;5.41;100.00;99032.03;5012353;28;20039;-87
2023/01/11 06:50:57;;;;;;;13.10;2.20;;;;;;;5.45;100.00;99041.22;5019522;28;20033;-87
2023/01/11 06:53:27;;;;;;;16.05;2.40;;;;;;;5.51;100.00;99050.28;4995663;28;20033;-86
2023/01/11 06:55:58;;;;;;;13.60;2.38;;;;;;;5.53;100.00;99030.03;5007287;28;20037;-87
2023/01/11 06:58:30;;;;;;;15.15;1.80;;;;;;;5.56;100.00;99048.06;5013980;28;20044;-87
2023/01/11 07:01:03;;;;;;;13.18;1.88;;;;;;;5.56;100.00;99045.44;5011411;28;20522;-86
2023/01/11 07:03:33;;;;;;;10.95;1.25;;;;;;;5.58;100.00;99035.66;5021623;28;20053;-87
2023/01/11 07:06:03;;;;;;;9.52;1.70;;;;;;;5.58;100.00;99030.41;4996313;28;20037;-87
2023/01/11 07:08:34;;;;;;;13.18;1.50;;;;;;;5.62;100.00;99036.19;5023902;28;20052;-87
2023/01/11 07:11:04;;;;;;;10.38;1.25;;;;;;;5.62;100.00;99030.94;5011697;28;20037;-86
2023/01/11 07:13:34;;;;;;;9.70;1.58;;;;;;;5.62;100.00;99035.34;5029550;28;20110;-87
2023/01/11 07:16:08;;;;;;;7.10;1.30;;;;;;;5.62;100.00;99024.88;5028705;28;20468;-86
2023/01/11 07:18:38;;;;;;;8.38;1.50;;;;;;;5.59;100.00;99034.66;5025696;28;20041;-87
2023/01/11 07:21:07;;;;;;;14.18;1.30;;;;;;;5.57;100.00;99041.84;5042678;28;20059;-87
2023/01/11 07:23:36;;;;;;;7.05;0.88;;;;;;;5.53;100.00;99024.78;5027617;28;20492;-87
2023/01/11 07:26:07;;;;;;;6.15;0.70;;;;;;;5.48;100.00;99013.09;5011352;28;20033;-86
2023/01/11 07:28:34;;;;;;;6.68;1.02;;;;;;;5.38;100.00;99023.63;5037712;28;20044;-86
2023/01/11 07:31:02;;;;;;;4.90;0.90;;;;;;;5.36;100.00;99017.69;5020928;28;20032;-87
2023/01/11 07:33:29;;;;;;;3.47;0.85;;;;;;;5.29;100.00;99022.69;5027276;28;20083;-86
2023/01/11 07:35:59;;;;;;;4.88;1.13;;;;;;;5.27;100.00;99032.50;5030426;28;20029;-87
2023/01/11 07:38:28;;;;;;;4.38;1.10;;;;;;;5.21;100.00;99018.16;5051793;28;20032;-87
2023/01/11 07:40:56;;;;;;;6.45;0.82;;;;;;;5.19;100.00;99012.28;5018355;28;20433;-86
2023/01/11 07:43:25;;;;;;;5.95;0.80;;;;;;;5.16;100.00;99023.03;5060757;28;20260;-87
2023/01/11 07:45:53;;;;;;;5.18;1.00;;;;;;;5.13;100.00;99008.41;5017845;28;20116;-87
2023/01/11 07:48:25;;;;;;;4.43;0.73;;;;;;;5.11;100.00;99005.13;5034207;28;20037;-86
2023/01/11 07:50:55;;;;;;;10.52;1.15;;;;;;;5.10;100.00;99013.94;5041987;28;20491;-87
2023/01/11 07:53:25;;;;;;;11.50;0.88;;;;;;;5.09;100.00;99018.38;5024591;28;20078;-87
2023/01/11 07:55:55;;;;;;;7.57;0.98;;;;;;;5.11;100.00;99031.34;5047908;28;20127;-87
2023/01/11 07:58:24;;;;;;;8.55;1.17;;;;;;;5.11;100.00;99040.97;5017781;28;20185;-88
2023/01/11 08:00:51;;;;;;;5.93;0.68;;;;;;;5.08;100.00;99040.28;5012461;28;20829;-87
2023/01/11 08:03:20;;;;;;;5.97;1.05;;;;;;;5.12;100.00;99029.53;5037016;28;20033;-87
2023/01/11 08:05:52;;;;;;;11.02;1.23;;;;;;;5.15;100.00;99029.22;4998017;28;20033;-87
2023/01/11 08:08:22;;;;;;;12.75;1.67;;;;;;;5.13;100.00;99029.38;5045735;28;20542;-87
2023/01/11 08:16:30;;;;;;;16.20;1.70;;;;;;;5.17;100.00;99041.22;5017748;28;20033;-88
2023/01/11 08:18:58;;;;;;;9.13;1.30;;;;;;;5.17;100.00;99035.16;5037333;28;20053;-88
2023/01/11 08:21:26;;;;;;;12.10;1.85;;;;;;;5.17;100.00;99043.84;5023011;28;20057;-87
2023/01/11 08:23:57;;;;;;;8.38;1.65;;;;;;;5.21;100.00;99028.66;5016658;28;20528;-88
2023/01/11 08:26:27;;;;;;;12.32;1.73;;;;;;;5.24;100.00;99024.94;5016652;28;20150;-87
2023/01/11 08:28:55;;;;;;;13.13;1.10;;;;;;;5.26;100.00;99026.44;5013694;28;20377;-87
2023/01/11 08:31:23;;;;;;;14.35;1.58;;;;;;;5.27;100.00;99035.94;5045527;28;20516;-87
2023/01/11 08:33:52;;;;;;;13.80;1.30;;;;;;;5.29;100.00;99020.06;5022190;28;20029;-87
2023/01/11 08:36:20;;;;;;;8.43;1.55;;;;;;;5.31;100.00;99026.81;5040632;28;20032;-87
2023/01/11 08:38:54;;;;;;;11.88;1.75;;;;;;;5.36;100.00;99028.19;5032700;28;20022;-82
2023/01/11 08:41:25;;;;;;;10.95;1.75;;;;;;;5.37;100.00;99050.81;5041670;28;20025;-82
2023/01/11 08:43:55;;;;;;;14.18;3.20;;;;;;;5.39;100.00;99025.25;5035697;28;20029;-87
2023/01/11 08:46:25;;;;;;;19.08;3.17;;;;;;;5.43;100.00;99065.94;5034006;28;20064;-87
2023/01/11 08:48:55;;;;;;;9.77;1.30;;;;;;;5.42;100.00;98986.50;5035521;28;20069;-89
2023/01/11 08:51:24;;;;;;;14.60;2.35;;;;;;;5.48;100.00;99002.63;5027956;28;20044;-88
2023/01/11 08:53:53;;;;;;;10.57;1.80;;;;;;;5.54;100.00;99005.44;5017101;28;20089;-88
2023/01/11 08:56:21;;;;;;;15.50;2.15;;;;;;;5.53;100.00;98995.09;5016231;28;20143;-88
2023/01/11 08:58:50;;;;;;;17.92;2.47;;;;;;;5.55;100.00;98991.38;5026633;28;20025;-87
2023/01/11 09:01:18;;;;;;;11.82;1.40;;;;;;;5.54;100.00;98988.91;5030645;28;20036;-87
2023/01/11 09:03:47;;;;;;;16.88;2.03;;;;;;;5.56;100.00;98979.91;5020634;28;20036;-87
2023/01/11 09:06:17;;;;;;;14.82;3.20;;;;;;;5.55;100.00;98977.44;5052618;28;20428;-87
2023/01/11 09:08:46;;;;;;;29.50;2.50;;;;;;;5.54;100.00;98974.00;5011909;28;20126;-87
2023/01/11 09:14:01;;;;;;;13.05;2.22;;;;;;;5.54;100.00;98971.38;5046060;28;20106;-86
2023/01/11 09:16:30;;;;;;;11.52;1.88;;;;;;;5.53;100.00;98967.13;5002579;28;20045;-87
2023/01/11 09:18:58;;;;;;;13.32;1.52;;;;;;;5.54;100.00;98981.84;5024445;28;20021;-86
2023/01/11 09:21:26;;;;;;;13.07;2.00;;;;;;;5.55;100.00;98970.41;5019157;28;20034;-87
2023/01/11 09:23:53;;;;;;;9.82;1.48;;;;;;;5.55;100.00;98993.19;5060912;28;20020;-87
2023/01/11 09:26:21;;;;;;;14.00;1.83;;;;;;;5.57;100.00;98996.47;5037741;28;20380;-87
2023/01/11 09:28:49;;;;;;;13.75;1.90;;;;;;;5.54;100.00;98994.16;5018325;28;20049;-87
2023/01/11 09:31:18;;;;;;;10.93;2.60;;;;;;;5.60;100.00;98988.31;5003625;28;20035;-87
2023/01/11 09:33:45;;;;;;;11.05;1.63;;;;;;;5.61;100.00;98983.88;5040762;28;20021;-88
2023/01/11 09:36:13;;;;;;;15.40;1.60;;;;;;;5.65;100.00;98977.38;5010334;28;20029;-87
2023/01/11 09:38:42;;;;;;;10.05;1.35;;;;;;;5.63;100.00;98953.94;4999380;28;20035;-88
2023/01/11 09:41:45;;;;;;;8.65;1.23;;;;;;;5.62;100.00;98961.97;5012825;28;20037;-89
2023/01/11 09:44:18;;;;;;;7.93;1.90;;;;;;;5.57;100.00;98954.53;5020997;28;20431;-88
2023/01/11 09:46:53;;;;;;;11.35;1.48;;;;;;;5.61;100.00;98968.16;5010411;28;20101;-89
2023/01/11 09:49:28;;;;;;;;;;;;;;;5.53;100.00;98977.59;5013274;28;20029;-87
2023/01/11 09:52:13;;;;;;;9.55;1.70;;;;;;;5.56;100.00;98986.94;5044482;28;19913;-89
2023/01/11 09:54:43;;;;;;;14.82;1.83;;;;;;;5.56;100.00;98995.66;5039502;28;20057;-87
2023/01/11 09:57:15;;;;;;;8.65;1.55;;;;;;;5.52;100.00;99012.66;5005577;28;20029;-88
2023/01/11 09:59:57;;;;;;;8.73;1.67;;;;;;;5.51;100.00;99020.66;5029814;28;20041;-88
2023/01/11 10:02:33;;;;;;;5.95;0.90;;;;;;;5.45;100.00;99019.44;5031487;28;20037;-87
2023/01/11 10:05:30;;;;;;;9.70;0.90;;;;;;;5.40;100.00;99046.06;5021813;28;20115;-88
2023/01/11 10:08:38;;;;;;;8.70;1.50;;;;;;;5.37;100.00;99042.94;5028085;28;20103;-88
2023/01/11 10:11:40;;;;;;;4.23;1.00;;;;;;;5.31;100.00;99060.88;5024830;28;20037;-88
2023/01/11 10:14:25;;;;;;;7.88;1.05;;;;;;;5.28;100.00;99058.56;5025080;28;20478;-88
2023/01/11 10:17:21;;;;;;;2.97;0.50;;;;;;;5.14;100.00;99070.34;5019890;28;20094;-89
2023/01/11 10:19:56;;;;;;;5.45;0.85;;;;;;;5.00;100.00;99050.63;5041214;28;20057;-88
2023/01/11 10:22:38;;;;;;;3.30;0.60;;;;;;;4.90;100.00;99040.22;5010750;28;20033;-87
2023/01/11 10:25:15;;;;;;;8.85;1.88;;;;;;;4.84;100.00;99033.75;5041762;28;20465;-88
2023/01/11 10:28:04;;;;;;;5.90;0.85;;;;;;;4.84;100.00;99018.03;5041178;28;20041;-88
2023/01/11 10:33:51;;;;;;;3.85;0.45;;;;;;;4.94;100.00;98993.59;5031407;28;20033;-88
2023/01/11 10:40:25;;;;;;;4.90;1.00;;;;;;;5.07;100.00;99009.84;5025376;28;20372;-87
2023/01/11 10:43:02;;;;;;;1.60;0.60;;;;;;;5.12;100.00;99026.91;5012907;28;20061;-87
2023/01/11 10:45:51;;;;;;;2.72;0.57;;;;;;;5.14;100.00;99030.22;4993378;28;20041;-87
2023/01/11 10:48:32;;;;;;;4.60;0.52;;;;;;;5.18;100.00;99032.41;5043744;28;20021;-89
2023/01/11 10:51:45;;;;;;;3.67;0.88;;;;;;;5.17;100.00;99025.50;5010853;28;20029;-89
2023/01/11 10:54:26;;;;;;;3.45;0.75;;;;;;;5.17;100.00;99007.19;5024648;28;20048;-89
2023/01/11 10:57:07;;;;;;;1.77;0.45;;;;;;;5.18;100.00;99000.13;5000335;28;20032;-87
2023/01/11 11:00:14;;;;;;;3.63;0.50;;;;;;;5.19;100.00;99017.50;5014010;28;20591;-87
2023/01/11 11:02:59;;;;;;;4.40;0.70;;;;;;;5.20;100.00;99000.81;4965015;28;20375;-88
2023/01/11 11:05:52;;;;;;;3.57;0.97;;;;;;;5.22;100.00;99002.31;5017522;28;20037;-87
2023/01/11 11:08:30;;;;;;;7.47;0.73;;;;;;;5.25;100.00;99008.25;5027539;28;20039;-87
2023/01/11 11:11:26;;;;;;;6.88;1.20;;;;;;;5.28;100.00;99000.91;5012538;28;20071;-87
2023/01/11 11:14:06;;;;;;;5.38;0.98;;;;;;;5.37;100.00;98995.78;5016430;28;20565;-88
2023/01/11 11:16:55;;;;;;;5.43;0.90;;;;;;;5.53;100.00;99003.81;5034586;28;20125;-88
2023/01/11 11:19:29;;;;;;;4.15;1.45;;;;;;;5.59;100.00;98991.91;5032969;28;20049;-87
2023/01/11 11:21:58;;;;;;;4.97;0.75;;;;;;;5.62;100.00;98975.06;5038259;28;20037;-88
2023/01/11 11:24:36;;;;;;;6.70;1.65;;;;;;;5.64;100.00;98976.56;5005923;28;20032;-88
2023/01/11 11:27:08;;;;;;;6.47;1.40;;;;;;;5.65;100.00;98982.63;5035475;28;20107;-88
2023/01/11 11:29:51;;;;;;;10.82;2.25;;;;;;;5.68;100.00;98967.44;5023457;28;20485;-88
2023/01/11 11:32:34;;;;;;;10.20;2.17;;;;;;;5.71;100.00;98984.66;5025857;28;20059;-88
2023/01/11 11:35:02;;;;;;;12.88;2.00;;;;;;;5.69;100.00;98987.44;5036673;28;20033;-88
2023/01/11 11:37:38;;;;;;;11.02;1.52;;;;;;;5.78;100.00;98979.66;5040797;28;20116;-87
2023/01/11 11:40:26;;;;;;;17.20;2.17;;;;;;;5.79;100.00;98978.66;5022512;28;20032;-88
2023/01/11 11:43:13;;;;;;;11.60;3.15;;;;;;;5.90;100.00;98982.84;5024068;28;20036;-87
2023/01/11 11:45:55;;;;;;;25.48;7.60;;;;;;;5.93;100.00;98980.78;5032217;28;20064;-86
2023/01/11 11:48:27;;;;;;;17.17;2.10;;;;;;;5.94;100.00;98987.66;5023338;28;20037;-87
2023/01/11 11:50:58;;;;;;;10.95;2.65;;;;;;;5.97;100.00;98999.66;5012188;28;20123;-87
2023/01/11 11:53:32;;;;;;;19.73;7.82;;;;;;;5.99;100.00;99002.13;5039635;28;20043;-87
2023/01/11 11:56:19;;;;;;;12.88;2.20;;;;;;;5.93;100.00;99021.91;5040052;28;20033;-87
2023/01/11 11:58:48;;;;;;;;;;;;;;;5.82;100.00;99028.19;5043739;28;20033;-87
2023/01/11 12:01:30;;;;;;;19.35;2.13;;;;;;;5.81;100.00;99026.56;5023369;28;19917;-88
2023/01/11 12:04:03;;;;;;;17.25;2.28;;;;;;;5.81;100.00;99047.53;5036009;28;20094;-87
2023/01/11 12:06:31;;;;;;;17.10;2.63;;;;;;;5.86;100.00;99041.84;5024756;28;20132;-89
2023/01/11 12:09:01;;;;;;;18.52;2.60;;;;;;;5.92;100.00;99020.25;5037931;28;20043;-87
2023/01/11 12:11:35;;;;;;;11.25;2.95;;;;;;;5.99;100.00;99010.00;5011866;28;20045;-88
2023/01/11 12:14:11;;;;;;;17.33;3.13;;;;;;;6.01;100.00;98997.53;5024106;28;20726;-86
2023/01/11 12:16:43;;;;;;;16.42;2.22;;;;;;;6.02;100.00;98978.22;5008776;28;21075;-88
2023/01/11 12:19:36;;;;;;;12.57;2.40;;;;;;;6.11;100.00;98995.72;4996490;28;20029;-87
2023/01/11 12:22:24;;;;;;;9.55;1.52;;;;;;;6.15;100.00;98985.72;5022621;28;20045;-88
2023/01/11 12:25:25;;;;;;;12.77;2.08;;;;;;;6.18;100.00;98978.38;5013480;28;20069;-87
2023/01/11 12:28:07;;;;;;;10.68;1.35;;;;;;;6.25;100.00;99015.31;5023965;28;20057;-87
2023/01/11 12:31:03;;;;;;;13.40;2.03;;;;;;;6.32;100.00;99008.47;5024178;28;20061;-87